sensor_id;sensor_type;location;lat;lon;timestamp;P1;durP1;ratioP1;P2;durP2;ratioP2
39948;SDS011;29070;48.102;-1.652;2023-02-22T00:04:46;48.50;;;24.77;;
39948;SDS011;29070;48.102;-1.652;2023-02-22T00:09:46;46.03;;;23.20;;
39948;SDS011;29070;48.102;-1.652;2023-02-22T00:14:47;44.50;;;22.77;;
39948;SDS011;29070;48.102;-1.652;2023-02-22T00:19:47;46.03;;;22.57;;
39948;SDS011;29070;48.102;-1.652;2023-02-22T00:24:48;47.83;;;22.15;;
39948;SDS011;29070;48.102;-1.652;2023-02-22T00:29:49;59.80;;;24.33;;
39948;SDS011;29070;48.102;-1.652;2023-02-22T00:34:52;46.40;;;23.17;;
39948;SDS011;29070;48.102;-1.652;2023-02-22T00:39:53;57.13;;;24.30;;
39948;SDS011;29070;48.102;-1.652;2023-02-22T00:44:53;42.03;;;22.63;;
39948;SDS011;29070;48.102;-1.652;2023-02-22T00:49:54;43.10;;;22.10;;
39948;SDS011;29070;48.102;-1.652;2023-02-22T00:54:55;45.03;;;23.05;;
39948;SDS011;29070;48.102;-1.652;2023-02-22T00:59:56;56.35;;;24.80;;
39948;SDS011;29070;48.102;-1.652;2023-02-22T01:04:57;47.00;;;24.23;;
39948;SDS011;29070;48.102;-1.652;2023-02-22T01:09:57;49.30;;;23.53;;
39948;SDS011;29070;48.102;-1.652;2023-02-22T01:14:57;52.20;;;23.87;;
39948;SDS011;29070;48.102;-1.652;2023-02-22T01:19:58;60.67;;;24.47;;
39948;SDS011;29070;48.102;-1.652;2023-02-22T01:24:58;68.93;;;25.13;;
39948;SDS011;29070;48.102;-1.652;2023-02-22T01:29:58;68.07;;;23.70;;
39948;SDS011;29070;48.102;-1.652;2023-02-22T01:34:59;66.90;;;25.23;;
39948;SDS011;29070;48.102;-1.652;2023-02-22T01:40:00;52.50;;;22.77;;
39948;SDS011;29070;48.102;-1.652;2023-02-22T01:50:30;60.85;;;23.23;;
39948;SDS011;29070;48.102;-1.652;2023-02-22T01:55:36;56.63;;;23.70;;
39948;SDS011;29070;48.102;-1.652;2023-02-22T02:00:37;63.15;;;24.33;;
39948;SDS011;29070;48.102;-1.652;2023-02-22T02:05:39;62.65;;;24.35;;
39948;SDS011;29070;48.102;-1.652;2023-02-22T02:10:40;63.80;;;23.48;;
39948;SDS011;29070;48.102;-1.652;2023-02-22T02:15:41;56.38;;;23.05;;
39948;SDS011;29070;48.102;-1.652;2023-02-22T02:20:45;57.25;;;22.25;;
39948;SDS011;29070;48.102;-1.652;2023-02-22T02:36:29;54.28;;;20.83;;
39948;SDS011;29070;48.102;-1.652;2023-02-22T02:41:33;53.05;;;19.20;;
39948;SDS011;29070;48.102;-1.652;2023-02-22T02:52:06;54.65;;;19.52;;
39948;SDS011;29070;48.102;-1.652;2023-02-22T02:57:09;49.13;;;19.67;;
39948;SDS011;29070;48.102;-1.652;2023-02-22T03:02:19;49.67;;;19.10;;
39948;SDS011;29070;48.102;-1.652;2023-02-22T03:08:06;57.10;;;20.15;;
39948;SDS011;29070;48.102;-1.652;2023-02-22T03:13:12;50.85;;;20.08;;
39948;SDS011;29070;48.102;-1.652;2023-02-22T03:18:16;54.90;;;19.10;;
39948;SDS011;29070;48.102;-1.652;2023-02-22T03:28:46;46.83;;;18.63;;
39948;SDS011;29070;48.102;-1.652;2023-02-22T03:34:00;52.80;;;19.50;;
39948;SDS011;29070;48.102;-1.652;2023-02-22T03:39:06;53.08;;;18.40;;
39948;SDS011;29070;48.102;-1.652;2023-02-22T03:49:15;38.75;;;17.23;;
39948;SDS011;29070;48.102;-1.652;2023-02-22T03:54:22;43.30;;;17.45;;
39948;SDS011;29070;48.102;-1.652;2023-02-22T03:59:23;44.28;;;17.50;;
39948;SDS011;29070;48.102;-1.652;2023-02-22T04:04:26;40.50;;;16.73;;
39948;SDS011;29070;48.102;-1.652;2023-02-22T04:09:26;41.92;;;17.75;;
39948;SDS011;29070;48.102;-1.652;2023-02-22T04:14:27;38.58;;;17.20;;
39948;SDS011;29070;48.102;-1.652;2023-02-22T04:19:27;44.22;;;16.60;;
39948;SDS011;29070;48.102;-1.652;2023-02-22T04:24:28;44.35;;;16.35;;
39948;SDS011;29070;48.102;-1.652;2023-02-22T04:29:28;39.00;;;16.60;;
39948;SDS011;29070;48.102;-1.652;2023-02-22T04:34:29;42.20;;;17.20;;
39948;SDS011;29070;48.102;-1.652;2023-02-22T04:39:29;36.83;;;15.60;;
39948;SDS011;29070;48.102;-1.652;2023-02-22T04:44:30;38.23;;;16.80;;
39948;SDS011;29070;48.102;-1.652;2023-02-22T04:49:30;40.13;;;16.35;;
39948;SDS011;29070;48.102;-1.652;2023-02-22T04:54:31;37.50;;;16.60;;
39948;SDS011;29070;48.102;-1.652;2023-02-22T04:59:31;40.17;;;16.67;;
39948;SDS011;29070;48.102;-1.652;2023-02-22T05:04:31;37.47;;;15.27;;
39948;SDS011;29070;48.102;-1.652;2023-02-22T05:09:32;39.40;;;15.73;;
39948;SDS011;29070;48.102;-1.652;2023-02-22T05:14:32;40.30;;;15.60;;
39948;SDS011;29070;48.102;-1.652;2023-02-22T05:19:33;40.10;;;16.70;;
39948;SDS011;29070;48.102;-1.652;2023-02-22T05:24:33;43.58;;;17.27;;
39948;SDS011;29070;48.102;-1.652;2023-02-22T05:29:34;38.92;;;16.40;;
39948;SDS011;29070;48.102;-1.652;2023-02-22T05:34:34;39.08;;;17.13;;
39948;SDS011;29070;48.102;-1.652;2023-02-22T05:39:34;44.75;;;17.70;;
39948;SDS011;29070;48.102;-1.652;2023-02-22T05:44:35;43.15;;;16.95;;
39948;SDS011;29070;48.102;-1.652;2023-02-22T05:49:35;42.83;;;16.90;;
39948;SDS011;29070;48.102;-1.652;2023-02-22T05:54:36;44.23;;;17.20;;
39948;SDS011;29070;48.102;-1.652;2023-02-22T05:59:36;45.97;;;17.83;;
39948;SDS011;29070;48.102;-1.652;2023-02-22T06:04:36;35.27;;;15.63;;
39948;SDS011;29070;48.102;-1.652;2023-02-22T06:09:37;36.57;;;15.20;;
39948;SDS011;29070;48.102;-1.652;2023-02-22T06:14:37;40.75;;;17.45;;
39948;SDS011;29070;48.102;-1.652;2023-02-22T06:19:39;41.20;;;15.68;;
39948;SDS011;29070;48.102;-1.652;2023-02-22T06:24:40;39.40;;;15.30;;
39948;SDS011;29070;48.102;-1.652;2023-02-22T06:29:43;38.70;;;15.40;;
39948;SDS011;29070;48.102;-1.652;2023-02-22T06:34:45;35.47;;;14.68;;
39948;SDS011;29070;48.102;-1.652;2023-02-22T06:39:46;31.47;;;14.47;;
39948;SDS011;29070;48.102;-1.652;2023-02-22T06:44:46;44.23;;;16.23;;
39948;SDS011;29070;48.102;-1.652;2023-02-22T06:49:56;35.37;;;14.87;;
39948;SDS011;29070;48.102;-1.652;2023-02-22T06:54:58;37.55;;;14.45;;
39948;SDS011;29070;48.102;-1.652;2023-02-22T06:59:58;31.57;;;15.03;;
39948;SDS011;29070;48.102;-1.652;2023-02-22T07:04:59;36.00;;;13.90;;
39948;SDS011;29070;48.102;-1.652;2023-02-22T07:09:59;34.90;;;14.20;;
39948;SDS011;29070;48.102;-1.652;2023-02-22T07:15:01;37.45;;;15.73;;
39948;SDS011;29070;48.102;-1.652;2023-02-22T07:20:01;36.40;;;15.13;;
39948;SDS011;29070;48.102;-1.652;2023-02-22T07:25:02;36.22;;;14.27;;
39948;SDS011;29070;48.102;-1.652;2023-02-22T07:30:04;36.30;;;13.90;;
39948;SDS011;29070;48.102;-1.652;2023-02-22T07:35:08;33.63;;;13.93;;
39948;SDS011;29070;48.102;-1.652;2023-02-22T07:40:17;40.65;;;15.77;;
39948;SDS011;29070;48.102;-1.652;2023-02-22T07:45:17;34.90;;;13.45;;
39948;SDS011;29070;48.102;-1.652;2023-02-22T07:50:18;37.47;;;13.88;;
39948;SDS011;29070;48.102;-1.652;2023-02-22T07:55:24;35.22;;;13.30;;
39948;SDS011;29070;48.102;-1.652;2023-02-22T08:00:27;47.63;;;16.55;;
39948;SDS011;29070;48.102;-1.652;2023-02-22T08:05:31;35.20;;;14.48;;
39948;SDS011;29070;48.102;-1.652;2023-02-22T08:10:33;46.28;;;17.85;;
39948;SDS011;29070;48.102;-1.652;2023-02-22T08:15:37;32.00;;;13.73;;
39948;SDS011;29070;48.102;-1.652;2023-02-22T08:25:41;30.65;;;12.35;;
39948;SDS011;29070;48.102;-1.652;2023-02-22T08:30:42;29.60;;;12.30;;
39948;SDS011;29070;48.102;-1.652;2023-02-22T08:35:42;36.60;;;13.68;;
39948;SDS011;29070;48.102;-1.652;2023-02-22T08:40:43;30.17;;;13.27;;
39948;SDS011;29070;48.102;-1.652;2023-02-22T08:45:43;27.45;;;12.38;;
39948;SDS011;29070;48.102;-1.652;2023-02-22T08:50:44;30.02;;;12.68;;
39948;SDS011;29070;48.102;-1.652;2023-02-22T08:55:45;25.65;;;11.93;;
39948;SDS011;29070;48.102;-1.652;2023-02-22T09:00:46;57.30;;;15.07;;
39948;SDS011;29070;48.102;-1.652;2023-02-22T09:05:46;94.15;;;20.70;;
39948;SDS011;29070;48.102;-1.652;2023-02-22T09:10:48;29.70;;;12.27;;
39948;SDS011;29070;48.102;-1.652;2023-02-22T09:15:51;34.28;;;12.10;;
39948;SDS011;29070;48.102;-1.652;2023-02-22T09:20:51;28.37;;;11.83;;
39948;SDS011;29070;48.102;-1.652;2023-02-22T09:25:52;25.85;;;11.75;;
39948;SDS011;29070;48.102;-1.652;2023-02-22T09:30:53;27.48;;;11.63;;
39948;SDS011;29070;48.102;-1.652;2023-02-22T09:35:53;24.52;;;10.70;;
39948;SDS011;29070;48.102;-1.652;2023-02-22T09:51:22;24.27;;;10.32;;
39948;SDS011;29070;48.102;-1.652;2023-02-22T09:56:26;23.63;;;11.70;;
39948;SDS011;29070;48.102;-1.652;2023-02-22T10:01:42;27.23;;;11.52;;
39948;SDS011;29070;48.102;-1.652;2023-02-22T10:12:22;23.08;;;9.43;;
39948;SDS011;29070;48.102;-1.652;2023-02-22T10:17:35;25.42;;;10.80;;
39948;SDS011;29070;48.102;-1.652;2023-02-22T10:23:09;23.15;;;9.35;;
39948;SDS011;29070;48.102;-1.652;2023-02-22T10:28:22;24.90;;;9.20;;
39948;SDS011;29070;48.102;-1.652;2023-02-22T10:33:36;23.67;;;8.90;;
39948;SDS011;29070;48.102;-1.652;2023-02-22T10:38:40;24.65;;;8.38;;
39948;SDS011;29070;48.102;-1.652;2023-02-22T10:43:47;23.58;;;8.73;;
39948;SDS011;29070;48.102;-1.652;2023-02-22T10:48:49;19.00;;;8.20;;
39948;SDS011;29070;48.102;-1.652;2023-02-22T10:53:54;25.05;;;9.13;;
39948;SDS011;29070;48.102;-1.652;2023-02-22T10:59:02;16.88;;;7.35;;
39948;SDS011;29070;48.102;-1.652;2023-02-22T11:09:20;16.77;;;5.85;;
39948;SDS011;29070;48.102;-1.652;2023-02-22T11:14:27;14.35;;;5.50;;
39948;SDS011;29070;48.102;-1.652;2023-02-22T11:19:30;13.00;;;5.88;;
39948;SDS011;29070;48.102;-1.652;2023-02-22T11:24:31;15.40;;;6.43;;
39948;SDS011;29070;48.102;-1.652;2023-02-22T11:35:29;20.05;;;7.35;;
39948;SDS011;29070;48.102;-1.652;2023-02-22T11:40:32;20.52;;;7.60;;
39948;SDS011;29070;48.102;-1.652;2023-02-22T11:45:34;16.30;;;7.10;;
39948;SDS011;29070;48.102;-1.652;2023-02-22T12:01:36;13.30;;;6.57;;
39948;SDS011;29070;48.102;-1.652;2023-02-22T12:23:04;11.23;;;4.22;;
39948;SDS011;29070;48.102;-1.652;2023-02-22T12:28:23;6.45;;;2.42;;
39948;SDS011;29070;48.102;-1.652;2023-02-22T12:33:28;5.03;;;1.05;;
39948;SDS011;29070;48.102;-1.652;2023-02-22T12:38:38;3.38;;;0.60;;
39948;SDS011;29070;48.102;-1.652;2023-02-22T12:48:52;9.32;;;0.80;;
39948;SDS011;29070;48.102;-1.652;2023-02-22T12:59:17;4.07;;;0.80;;
39948;SDS011;29070;48.102;-1.652;2023-02-22T13:04:25;4.32;;;0.70;;
39948;SDS011;29070;48.102;-1.652;2023-02-22T13:25:08;7.63;;;1.52;;
39948;SDS011;29070;48.102;-1.652;2023-02-22T13:51:01;4.53;;;1.13;;
39948;SDS011;29070;48.102;-1.652;2023-02-22T13:56:05;4.97;;;1.38;;
39948;SDS011;29070;48.102;-1.652;2023-02-22T14:01:06;5.32;;;1.33;;
39948;SDS011;29070;48.102;-1.652;2023-02-22T14:06:07;1.77;;;1.00;;
39948;SDS011;29070;48.102;-1.652;2023-02-22T14:16:16;5.78;;;1.30;;
39948;SDS011;29070;48.102;-1.652;2023-02-22T14:21:19;10.80;;;1.42;;
39948;SDS011;29070;48.102;-1.652;2023-02-22T14:26:28;5.97;;;0.93;;
39948;SDS011;29070;48.102;-1.652;2023-02-22T14:42:01;4.47;;;1.10;;
39948;SDS011;29070;48.102;-1.652;2023-02-22T14:47:03;8.55;;;1.27;;
39948;SDS011;29070;48.102;-1.652;2023-02-22T14:52:12;7.57;;;1.50;;
39948;SDS011;29070;48.102;-1.652;2023-02-22T14:57:22;4.50;;;1.00;;
39948;SDS011;29070;48.102;-1.652;2023-02-22T15:02:27;7.65;;;1.25;;
39948;SDS011;29070;48.102;-1.652;2023-02-22T15:07:38;7.03;;;1.20;;
39948;SDS011;29070;48.102;-1.652;2023-02-22T15:12:39;4.53;;;0.83;;
39948;SDS011;29070;48.102;-1.652;2023-02-22T15:17:39;7.07;;;0.93;;
39948;SDS011;29070;48.102;-1.652;2023-02-22T15:22:40;6.82;;;0.95;;
39948;SDS011;29070;48.102;-1.652;2023-02-22T15:27:42;3.25;;;0.95;;
39948;SDS011;29070;48.102;-1.652;2023-02-22T15:32:46;8.77;;;1.10;;
39948;SDS011;29070;48.102;-1.652;2023-02-22T15:37:47;4.68;;;0.75;;
39948;SDS011;29070;48.102;-1.652;2023-02-22T15:43:02;4.90;;;0.75;;
39948;SDS011;29070;48.102;-1.652;2023-02-22T15:48:08;4.85;;;0.80;;
39948;SDS011;29070;48.102;-1.652;2023-02-22T15:58:20;4.15;;;1.10;;
39948;SDS011;29070;48.102;-1.652;2023-02-22T16:03:23;7.10;;;2.08;;
39948;SDS011;29070;48.102;-1.652;2023-02-22T16:09:06;4.65;;;1.02;;
39948;SDS011;29070;48.102;-1.652;2023-02-22T16:14:02;5.78;;;1.02;;
39948;SDS011;29070;48.102;-1.652;2023-02-22T16:24:26;4.75;;;1.15;;
39948;SDS011;29070;48.102;-1.652;2023-02-22T16:29:32;6.47;;;1.02;;
39948;SDS011;29070;48.102;-1.652;2023-02-22T16:34:32;5.43;;;1.17;;
39948;SDS011;29070;48.102;-1.652;2023-02-22T16:39:33;6.85;;;1.30;;
39948;SDS011;29070;48.102;-1.652;2023-02-22T16:44:35;4.95;;;1.38;;
39948;SDS011;29070;48.102;-1.652;2023-02-22T16:49:35;5.03;;;1.20;;
39948;SDS011;29070;48.102;-1.652;2023-02-22T16:54:41;4.07;;;1.10;;
39948;SDS011;29070;48.102;-1.652;2023-02-22T16:59:44;9.32;;;2.08;;
39948;SDS011;29070;48.102;-1.652;2023-02-22T17:04:47;3.10;;;0.52;;
39948;SDS011;29070;48.102;-1.652;2023-02-22T17:09:48;7.60;;;0.80;;
39948;SDS011;29070;48.102;-1.652;2023-02-22T17:14:50;6.38;;;1.10;;
39948;SDS011;29070;48.102;-1.652;2023-02-22T17:19:51;2.80;;;1.10;;
39948;SDS011;29070;48.102;-1.652;2023-02-22T17:24:51;6.43;;;2.45;;
39948;SDS011;29070;48.102;-1.652;2023-02-22T17:29:52;7.33;;;0.90;;
39948;SDS011;29070;48.102;-1.652;2023-02-22T17:34:52;7.00;;;1.20;;
39948;SDS011;29070;48.102;-1.652;2023-02-22T17:39:52;5.97;;;1.10;;
39948;SDS011;29070;48.102;-1.652;2023-02-22T17:44:54;7.13;;;1.40;;
39948;SDS011;29070;48.102;-1.652;2023-02-22T17:49:55;4.40;;;0.97;;
39948;SDS011;29070;48.102;-1.652;2023-02-22T17:54:56;13.68;;;2.25;;
39948;SDS011;29070;48.102;-1.652;2023-02-22T17:59:57;8.25;;;2.53;;
39948;SDS011;29070;48.102;-1.652;2023-02-22T18:04:58;7.80;;;1.83;;
39948;SDS011;29070;48.102;-1.652;2023-02-22T18:10:00;5.03;;;1.13;;
39948;SDS011;29070;48.102;-1.652;2023-02-22T18:15:04;7.15;;;1.50;;
39948;SDS011;29070;48.102;-1.652;2023-02-22T18:20:07;10.10;;;1.30;;
39948;SDS011;29070;48.102;-1.652;2023-02-22T18:25:12;10.25;;;1.50;;
39948;SDS011;29070;48.102;-1.652;2023-02-22T18:30:13;7.95;;;1.77;;
39948;SDS011;29070;48.102;-1.652;2023-02-22T18:35:14;10.38;;;1.92;;
39948;SDS011;29070;48.102;-1.652;2023-02-22T18:40:14;7.72;;;1.80;;
39948;SDS011;29070;48.102;-1.652;2023-02-22T18:45:17;10.40;;;2.30;;
39948;SDS011;29070;48.102;-1.652;2023-02-22T18:50:19;5.95;;;1.73;;
39948;SDS011;29070;48.102;-1.652;2023-02-22T18:55:20;6.00;;;1.90;;
39948;SDS011;29070;48.102;-1.652;2023-02-22T19:00:21;6.88;;;1.48;;
39948;SDS011;29070;48.102;-1.652;2023-02-22T19:05:27;5.22;;;1.40;;
39948;SDS011;29070;48.102;-1.652;2023-02-22T19:10:28;7.40;;;1.27;;
39948;SDS011;29070;48.102;-1.652;2023-02-22T19:15:28;3.83;;;0.82;;
39948;SDS011;29070;48.102;-1.652;2023-02-22T19:20:29;5.80;;;1.50;;
39948;SDS011;29070;48.102;-1.652;2023-02-22T19:25:32;6.70;;;1.55;;
39948;SDS011;29070;48.102;-1.652;2023-02-22T19:30:32;9.00;;;1.60;;
39948;SDS011;29070;48.102;-1.652;2023-02-22T19:35:32;7.47;;;1.53;;
39948;SDS011;29070;48.102;-1.652;2023-02-22T19:40:33;7.22;;;1.73;;
39948;SDS011;29070;48.102;-1.652;2023-02-22T19:45:37;9.02;;;1.60;;
39948;SDS011;29070;48.102;-1.652;2023-02-22T19:50:38;6.85;;;1.58;;
39948;SDS011;29070;48.102;-1.652;2023-02-22T19:55:47;6.45;;;1.65;;
39948;SDS011;29070;48.102;-1.652;2023-02-22T20:00:48;7.13;;;1.50;;
39948;SDS011;29070;48.102;-1.652;2023-02-22T20:05:48;4.17;;;1.63;;
39948;SDS011;29070;48.102;-1.652;2023-02-22T20:10:48;11.63;;;1.80;;
39948;SDS011;29070;48.102;-1.652;2023-02-22T20:15:49;7.40;;;1.75;;
39948;SDS011;29070;48.102;-1.652;2023-02-22T20:20:49;5.18;;;1.52;;
39948;SDS011;29070;48.102;-1.652;2023-02-22T20:25:53;9.75;;;2.00;;
39948;SDS011;29070;48.102;-1.652;2023-02-22T20:30:55;9.65;;;1.85;;
39948;SDS011;29070;48.102;-1.652;2023-02-22T20:35:56;4.33;;;1.80;;
39948;SDS011;29070;48.102;-1.652;2023-02-22T20:40:56;9.52;;;2.13;;
39948;SDS011;29070;48.102;-1.652;2023-02-22T20:45:59;7.40;;;2.10;;
39948;SDS011;29070;48.102;-1.652;2023-02-22T20:51:07;8.45;;;1.80;;
39948;SDS011;29070;48.102;-1.652;2023-02-22T20:56:13;6.40;;;1.63;;
39948;SDS011;29070;48.102;-1.652;2023-02-22T21:01:15;7.18;;;1.75;;
39948;SDS011;29070;48.102;-1.652;2023-02-22T21:06:18;12.57;;;2.15;;
39948;SDS011;29070;48.102;-1.652;2023-02-22T21:11:21;10.50;;;1.88;;
39948;SDS011;29070;48.102;-1.652;2023-02-22T21:16:24;7.28;;;1.70;;
39948;SDS011;29070;48.102;-1.652;2023-02-22T21:21:30;5.68;;;1.45;;
39948;SDS011;29070;48.102;-1.652;2023-02-22T21:26:31;7.15;;;2.15;;
39948;SDS011;29070;48.102;-1.652;2023-02-22T21:31:34;10.32;;;1.90;;
39948;SDS011;29070;48.102;-1.652;2023-02-22T21:36:35;9.05;;;1.83;;
39948;SDS011;29070;48.102;-1.652;2023-02-22T21:41:37;4.82;;;1.83;;
39948;SDS011;29070;48.102;-1.652;2023-02-22T21:46:39;7.72;;;1.83;;
39948;SDS011;29070;48.102;-1.652;2023-02-22T21:51:39;8.25;;;2.20;;
39948;SDS011;29070;48.102;-1.652;2023-02-22T21:56:41;6.50;;;2.50;;
39948;SDS011;29070;48.102;-1.652;2023-02-22T22:01:43;11.65;;;2.08;;
39948;SDS011;29070;48.102;-1.652;2023-02-22T22:06:47;8.98;;;3.97;;
39948;SDS011;29070;48.102;-1.652;2023-02-22T22:11:51;6.97;;;2.72;;
39948;SDS011;29070;48.102;-1.652;2023-02-22T22:16:57;7.72;;;2.85;;
39948;SDS011;29070;48.102;-1.652;2023-02-22T22:21:58;11.10;;;2.42;;
39948;SDS011;29070;48.102;-1.652;2023-02-22T22:26:59;6.53;;;2.30;;
39948;SDS011;29070;48.102;-1.652;2023-02-22T22:32:02;9.63;;;2.58;;
39948;SDS011;29070;48.102;-1.652;2023-02-22T22:37:04;5.82;;;2.10;;
39948;SDS011;29070;48.102;-1.652;2023-02-22T22:42:05;7.73;;;2.10;;
39948;SDS011;29070;48.102;-1.652;2023-02-22T22:47:05;8.07;;;2.20;;
39948;SDS011;29070;48.102;-1.652;2023-02-22T22:52:06;7.30;;;1.97;;
39948;SDS011;29070;48.102;-1.652;2023-02-22T22:57:06;6.88;;;1.95;;
39948;SDS011;29070;48.102;-1.652;2023-02-22T23:02:07;5.90;;;2.20;;
39948;SDS011;29070;48.102;-1.652;2023-02-22T23:07:10;9.60;;;2.22;;
39948;SDS011;29070;48.102;-1.652;2023-02-22T23:12:12;4.93;;;1.67;;
39948;SDS011;29070;48.102;-1.652;2023-02-22T23:17:16;5.93;;;1.52;;
39948;SDS011;29070;48.102;-1.652;2023-02-22T23:22:29;7.30;;;2.08;;
39948;SDS011;29070;48.102;-1.652;2023-02-22T23:27:30;8.57;;;2.08;;
39948;SDS011;29070;48.102;-1.652;2023-02-22T23:32:30;7.63;;;2.50;;
39948;SDS011;29070;48.102;-1.652;2023-02-22T23:37:33;7.07;;;2.08;;
39948;SDS011;29070;48.102;-1.652;2023-02-22T23:42:34;6.20;;;1.83;;
39948;SDS011;29070;48.102;-1.652;2023-02-22T23:47:34;5.73;;;1.97;;
39948;SDS011;29070;48.102;-1.652;2023-02-22T23:52:35;7.00;;;1.80;;
39948;SDS011;29070;48.102;-1.652;2023-02-22T23:57:36;4.05;;;1.60;;
